sensor_id;sensor_type;location;lat;lon;timestamp;P1;P2;P0
47081;PMS5003;33066;49.296;14.470;2023-05-27T00:01:38;37;34;
47081;PMS5003;33066;49.296;14.470;2023-05-27T00:04:03;21;19;
47081;PMS5003;33066;49.296;14.470;2023-05-27T00:06:29;27;25;
47081;PMS5003;33066;49.296;14.470;2023-05-27T00:08:54;36;31;
47081;PMS5003;33066;49.296;14.470;2023-05-27T00:11:20;29;26;
47081;PMS5003;33066;49.296;14.470;2023-05-27T00:13:45;22;20;
47081;PMS5003;33066;49.296;14.470;2023-05-27T00:16:10;30;27;
47081;PMS5003;33066;49.296;14.470;2023-05-27T00:18:36;31;26;
47081;PMS5003;33066;49.296;14.470;2023-05-27T00:21:01;15;14;
47081;PMS5003;33066;49.296;14.470;2023-05-27T00:23:27;19;18;
47081;PMS5003;33066;49.296;14.470;2023-05-27T00:25:52;22;18;
47081;PMS5003;33066;49.296;14.470;2023-05-27T00:28:19;20;19;
47081;PMS5003;33066;49.296;14.470;2023-05-27T00:30:43;22;18;
47081;PMS5003;33066;49.296;14.470;2023-05-27T00:33:09;17;17;
47081;PMS5003;33066;49.296;14.470;2023-05-27T00:35:34;29;24;
47081;PMS5003;33066;49.296;14.470;2023-05-27T00:37:59;21;17;
47081;PMS5003;33066;49.296;14.470;2023-05-27T00:40:26;23;23;
47081;PMS5003;33066;49.296;14.470;2023-05-27T00:42:50;24;19;
47081;PMS5003;33066;49.296;14.470;2023-05-27T00:45:16;26;19;
47081;PMS5003;33066;49.296;14.470;2023-05-27T00:47:41;18;17;
47081;PMS5003;33066;49.296;14.470;2023-05-27T00:50:07;22;19;
47081;PMS5003;33066;49.296;14.470;2023-05-27T00:52:32;19;18;
47081;PMS5003;33066;49.296;14.470;2023-05-27T00:54:57;25;23;
47081;PMS5003;33066;49.296;14.470;2023-05-27T00:57:22;17;17;
47081;PMS5003;33066;49.296;14.470;2023-05-27T00:59:48;16;15;
47081;PMS5003;33066;49.296;14.470;2023-05-27T01:02:14;26;23;
47081;PMS5003;33066;49.296;14.470;2023-05-27T01:04:39;18;16;
47081;PMS5003;33066;49.296;14.470;2023-05-27T01:07:06;16;16;
47081;PMS5003;33066;49.296;14.470;2023-05-27T01:09:32;25;25;
47081;PMS5003;33066;49.296;14.470;2023-05-27T01:11:56;21;17;
47081;PMS5003;33066;49.296;14.470;2023-05-27T01:14:21;20;16;
47081;PMS5003;33066;49.296;14.470;2023-05-27T01:16:46;28;22;
47081;PMS5003;33066;49.296;14.470;2023-05-27T01:19:13;21;21;
47081;PMS5003;33066;49.296;14.470;2023-05-27T01:21:37;20;19;
47081;PMS5003;33066;49.296;14.470;2023-05-27T01:24:03;20;17;
47081;PMS5003;33066;49.296;14.470;2023-05-27T01:26:28;19;18;
47081;PMS5003;33066;49.296;14.470;2023-05-27T01:28:53;17;15;
47081;PMS5003;33066;49.296;14.470;2023-05-27T01:31:21;16;14;
47081;PMS5003;33066;49.296;14.470;2023-05-27T01:33:47;20;16;
47081;PMS5003;33066;49.296;14.470;2023-05-27T01:36:13;12;12;
47081;PMS5003;33066;49.296;14.470;2023-05-27T01:38:37;23;19;
47081;PMS5003;33066;49.296;14.470;2023-05-27T01:41:01;18;16;
47081;PMS5003;33066;49.296;14.470;2023-05-27T01:43:27;21;21;
47081;PMS5003;33066;49.296;14.470;2023-05-27T01:45:52;16;15;
47081;PMS5003;33066;49.296;14.470;2023-05-27T01:48:18;16;16;
47081;PMS5003;33066;49.296;14.470;2023-05-27T01:50:44;19;15;
47081;PMS5003;33066;49.296;14.470;2023-05-27T01:53:09;22;21;
47081;PMS5003;33066;49.296;14.470;2023-05-27T01:55:34;17;15;
47081;PMS5003;33066;49.296;14.470;2023-05-27T01:58:01;12;12;
47081;PMS5003;33066;49.296;14.470;2023-05-27T02:00:26;23;13;
47081;PMS5003;33066;49.296;14.470;2023-05-27T02:02:51;19;13;
47081;PMS5003;33066;49.296;14.470;2023-05-27T02:05:16;26;21;
47081;PMS5003;33066;49.296;14.470;2023-05-27T02:07:42;15;14;
47081;PMS5003;33066;49.296;14.470;2023-05-27T02:10:09;13;10;
47081;PMS5003;33066;49.296;14.470;2023-05-27T02:12:33;12;9;
47081;PMS5003;33066;49.296;14.470;2023-05-27T02:14:59;11;9;
47081;PMS5003;33066;49.296;14.470;2023-05-27T02:17:26;8;8;
47081;PMS5003;33066;49.296;14.470;2023-05-27T02:19:50;10;9;
47081;PMS5003;33066;49.296;14.470;2023-05-27T02:22:16;13;13;
47081;PMS5003;33066;49.296;14.470;2023-05-27T02:24:41;19;14;
47081;PMS5003;33066;49.296;14.470;2023-05-27T02:27:07;15;15;
47081;PMS5003;33066;49.296;14.470;2023-05-27T02:29:32;7;7;
47081;PMS5003;33066;49.296;14.470;2023-05-27T02:31:58;12;8;
47081;PMS5003;33066;49.296;14.470;2023-05-27T02:34:25;9;8;
47081;PMS5003;33066;49.296;14.470;2023-05-27T02:36:48;11;8;
47081;PMS5003;33066;49.296;14.470;2023-05-27T02:39:15;12;11;
47081;PMS5003;33066;49.296;14.470;2023-05-27T02:41:39;21;18;
47081;PMS5003;33066;49.296;14.470;2023-05-27T02:44:05;14;14;
47081;PMS5003;33066;49.296;14.470;2023-05-27T02:46:31;9;9;
47081;PMS5003;33066;49.296;14.470;2023-05-27T02:48:57;11;9;
47081;PMS5003;33066;49.296;14.470;2023-05-27T02:51:22;12;11;
47081;PMS5003;33066;49.296;14.470;2023-05-27T02:53:47;10;10;
47081;PMS5003;33066;49.296;14.470;2023-05-27T02:56:14;10;9;
47081;PMS5003;33066;49.296;14.470;2023-05-27T02:58:39;11;10;
47081;PMS5003;33066;49.296;14.470;2023-05-27T03:01:04;11;11;
47081;PMS5003;33066;49.296;14.470;2023-05-27T03:03:29;12;10;
47081;PMS5003;33066;49.296;14.470;2023-05-27T03:05:55;27;15;
47081;PMS5003;33066;49.296;14.470;2023-05-27T03:08:21;17;15;
47081;PMS5003;33066;49.296;14.470;2023-05-27T03:13:00;15;14;
47081;PMS5003;33066;49.296;14.470;2023-05-27T03:15:26;13;11;
47081;PMS5003;33066;49.296;14.470;2023-05-27T03:17:51;11;11;
47081;PMS5003;33066;49.296;14.470;2023-05-27T03:20:17;14;14;
47081;PMS5003;33066;49.296;14.470;2023-05-27T03:22:42;12;12;
47081;PMS5003;33066;49.296;14.470;2023-05-27T03:25:08;19;18;
47081;PMS5003;33066;49.296;14.470;2023-05-27T03:27:33;14;12;
47081;PMS5003;33066;49.296;14.470;2023-05-27T03:30:00;16;13;
47081;PMS5003;33066;49.296;14.470;2023-05-27T03:32:25;15;12;
47081;PMS5003;33066;49.296;14.470;2023-05-27T03:34:50;22;21;
47081;PMS5003;33066;49.296;14.470;2023-05-27T03:37:16;20;18;
47081;PMS5003;33066;49.296;14.470;2023-05-27T03:39:41;34;26;
47081;PMS5003;33066;49.296;14.470;2023-05-27T03:42:09;16;16;
47081;PMS5003;33066;49.296;14.470;2023-05-27T03:44:32;19;19;
47081;PMS5003;33066;49.296;14.470;2023-05-27T03:46:59;18;13;
47081;PMS5003;33066;49.296;14.470;2023-05-27T03:49:23;18;14;
47081;PMS5003;33066;49.296;14.470;2023-05-27T03:51:48;10;9;
47081;PMS5003;33066;49.296;14.470;2023-05-27T03:54:14;18;18;
47081;PMS5003;33066;49.296;14.470;2023-05-27T03:56:39;20;15;
47081;PMS5003;33066;49.296;14.470;2023-05-27T03:59:04;19;14;
47081;PMS5003;33066;49.296;14.470;2023-05-27T04:01:29;33;28;
47081;PMS5003;33066;49.296;14.470;2023-05-27T04:03:55;27;23;
47081;PMS5003;33066;49.296;14.470;2023-05-27T04:06:20;21;18;
47081;PMS5003;33066;49.296;14.470;2023-05-27T04:08:46;20;17;
47081;PMS5003;33066;49.296;14.470;2023-05-27T04:11:11;21;16;
47081;PMS5003;33066;49.296;14.470;2023-05-27T04:13:36;12;12;
47081;PMS5003;33066;49.296;14.470;2023-05-27T04:16:01;26;20;
47081;PMS5003;33066;49.296;14.470;2023-05-27T04:18:27;18;17;
47081;PMS5003;33066;49.296;14.470;2023-05-27T04:20:53;25;24;
47081;PMS5003;33066;49.296;14.470;2023-05-27T04:23:18;27;21;
47081;PMS5003;33066;49.296;14.470;2023-05-27T04:25:44;26;24;
47081;PMS5003;33066;49.296;14.470;2023-05-27T04:28:10;23;22;
47081;PMS5003;33066;49.296;14.470;2023-05-27T04:30:35;55;42;
47081;PMS5003;33066;49.296;14.470;2023-05-27T04:33:01;17;16;
47081;PMS5003;33066;49.296;14.470;2023-05-27T04:35:26;14;10;
47081;PMS5003;33066;49.296;14.470;2023-05-27T04:37:52;7;7;
47081;PMS5003;33066;49.296;14.470;2023-05-27T04:40:17;9;8;
47081;PMS5003;33066;49.296;14.470;2023-05-27T04:42:42;10;9;
47081;PMS5003;33066;49.296;14.470;2023-05-27T04:45:08;10;8;
47081;PMS5003;33066;49.296;14.470;2023-05-27T04:47:33;11;10;
47081;PMS5003;33066;49.296;14.470;2023-05-27T04:49:58;6;6;
47081;PMS5003;33066;49.296;14.470;2023-05-27T04:52:24;11;8;
47081;PMS5003;33066;49.296;14.470;2023-05-27T04:54:49;13;13;
47081;PMS5003;33066;49.296;14.470;2023-05-27T04:57:15;9;7;
47081;PMS5003;33066;49.296;14.470;2023-05-27T04:59:40;11;7;
47081;PMS5003;33066;49.296;14.470;2023-05-27T05:02:06;8;6;
47081;PMS5003;33066;49.296;14.470;2023-05-27T05:04:31;5;5;
47081;PMS5003;33066;49.296;14.470;2023-05-27T05:06:58;11;10;
47081;PMS5003;33066;49.296;14.470;2023-05-27T05:09:23;8;8;
47081;PMS5003;33066;49.296;14.470;2023-05-27T05:11:48;7;7;
47081;PMS5003;33066;49.296;14.470;2023-05-27T05:14:13;6;5;
47081;PMS5003;33066;49.296;14.470;2023-05-27T05:16:40;8;7;
47081;PMS5003;33066;49.296;14.470;2023-05-27T05:19:04;4;4;
47081;PMS5003;33066;49.296;14.470;2023-05-27T05:21:30;6;6;
47081;PMS5003;33066;49.296;14.470;2023-05-27T05:23:55;8;6;
47081;PMS5003;33066;49.296;14.470;2023-05-27T05:26:20;6;6;
47081;PMS5003;33066;49.296;14.470;2023-05-27T05:28:46;6;6;
47081;PMS5003;33066;49.296;14.470;2023-05-27T05:31:11;6;4;
47081;PMS5003;33066;49.296;14.470;2023-05-27T05:33:36;6;6;
47081;PMS5003;33066;49.296;14.470;2023-05-27T05:36:01;9;5;
47081;PMS5003;33066;49.296;14.470;2023-05-27T05:38:27;6;5;
47081;PMS5003;33066;49.296;14.470;2023-05-27T05:40:52;6;5;
47081;PMS5003;33066;49.296;14.470;2023-05-27T05:43:18;8;5;
47081;PMS5003;33066;49.296;14.470;2023-05-27T05:45:43;5;5;
47081;PMS5003;33066;49.296;14.470;2023-05-27T05:48:08;5;4;
47081;PMS5003;33066;49.296;14.470;2023-05-27T05:50:33;11;8;
47081;PMS5003;33066;49.296;14.470;2023-05-27T05:52:59;3;3;
47081;PMS5003;33066;49.296;14.470;2023-05-27T05:55:24;8;6;
47081;PMS5003;33066;49.296;14.470;2023-05-27T05:57:50;11;9;
47081;PMS5003;33066;49.296;14.470;2023-05-27T06:00:17;5;5;
47081;PMS5003;33066;49.296;14.470;2023-05-27T06:02:40;4;4;
47081;PMS5003;33066;49.296;14.470;2023-05-27T06:05:06;8;7;
47081;PMS5003;33066;49.296;14.470;2023-05-27T06:07:30;6;5;
47081;PMS5003;33066;49.296;14.470;2023-05-27T06:09:56;4;4;
47081;PMS5003;33066;49.296;14.470;2023-05-27T06:12:22;9;6;
47081;PMS5003;33066;49.296;14.470;2023-05-27T06:14:47;6;6;
47081;PMS5003;33066;49.296;14.470;2023-05-27T06:17:12;9;7;
47081;PMS5003;33066;49.296;14.470;2023-05-27T06:19:38;10;6;
47081;PMS5003;33066;49.296;14.470;2023-05-27T06:22:03;7;6;
47081;PMS5003;33066;49.296;14.470;2023-05-27T06:24:28;7;5;
47081;PMS5003;33066;49.296;14.470;2023-05-27T06:26:54;11;9;
47081;PMS5003;33066;49.296;14.470;2023-05-27T06:29:20;9;6;
47081;PMS5003;33066;49.296;14.470;2023-05-27T06:31:45;6;6;
47081;PMS5003;33066;49.296;14.470;2023-05-27T06:34:11;4;4;
47081;PMS5003;33066;49.296;14.470;2023-05-27T06:36:35;8;5;
47081;PMS5003;33066;49.296;14.470;2023-05-27T06:39:01;11;7;
47081;PMS5003;33066;49.296;14.470;2023-05-27T06:41:26;7;5;
47081;PMS5003;33066;49.296;14.470;2023-05-27T06:43:51;11;11;
47081;PMS5003;33066;49.296;14.470;2023-05-27T06:46:17;6;6;
47081;PMS5003;33066;49.296;14.470;2023-05-27T06:48:43;8;5;
47081;PMS5003;33066;49.296;14.470;2023-05-27T06:51:08;8;6;
47081;PMS5003;33066;49.296;14.470;2023-05-27T06:53:33;7;6;
47081;PMS5003;33066;49.296;14.470;2023-05-27T06:55:59;7;7;
47081;PMS5003;33066;49.296;14.470;2023-05-27T06:58:26;10;5;
47081;PMS5003;33066;49.296;14.470;2023-05-27T07:00:50;5;3;
47081;PMS5003;33066;49.296;14.470;2023-05-27T07:03:15;5;5;
47081;PMS5003;33066;49.296;14.470;2023-05-27T07:05:41;5;4;
47081;PMS5003;33066;49.296;14.470;2023-05-27T07:08:06;11;6;
47081;PMS5003;33066;49.296;14.470;2023-05-27T07:10:31;11;8;
47081;PMS5003;33066;49.296;14.470;2023-05-27T07:12:57;3;3;
47081;PMS5003;33066;49.296;14.470;2023-05-27T07:15:22;7;6;
47081;PMS5003;33066;49.296;14.470;2023-05-27T07:17:47;9;6;
47081;PMS5003;33066;49.296;14.470;2023-05-27T07:20:12;8;5;
47081;PMS5003;33066;49.296;14.470;2023-05-27T07:22:38;8;7;
47081;PMS5003;33066;49.296;14.470;2023-05-27T07:25:04;6;5;
47081;PMS5003;33066;49.296;14.470;2023-05-27T07:27:28;4;4;
47081;PMS5003;33066;49.296;14.470;2023-05-27T07:29:54;4;4;
47081;PMS5003;33066;49.296;14.470;2023-05-27T07:32:20;6;4;
47081;PMS5003;33066;49.296;14.470;2023-05-27T07:34:44;4;4;
47081;PMS5003;33066;49.296;14.470;2023-05-27T07:37:10;6;5;
47081;PMS5003;33066;49.296;14.470;2023-05-27T07:39:35;8;6;
47081;PMS5003;33066;49.296;14.470;2023-05-27T07:42:00;5;2;
47081;PMS5003;33066;49.296;14.470;2023-05-27T07:44:25;4;3;
47081;PMS5003;33066;49.296;14.470;2023-05-27T07:46:50;2;2;
47081;PMS5003;33066;49.296;14.470;2023-05-27T07:49:15;7;5;
47081;PMS5003;33066;49.296;14.470;2023-05-27T07:51:40;6;6;
47081;PMS5003;33066;49.296;14.470;2023-05-27T07:54:06;2;2;
47081;PMS5003;33066;49.296;14.470;2023-05-27T07:56:31;7;6;
47081;PMS5003;33066;49.296;14.470;2023-05-27T07:58:56;8;7;
47081;PMS5003;33066;49.296;14.470;2023-05-27T08:01:21;6;4;
47081;PMS5003;33066;49.296;14.470;2023-05-27T08:03:47;10;6;
47081;PMS5003;33066;49.296;14.470;2023-05-27T08:06:13;13;7;
47081;PMS5003;33066;49.296;14.470;2023-05-27T08:08:38;6;5;
47081;PMS5003;33066;49.296;14.470;2023-05-27T08:11:02;6;4;
47081;PMS5003;33066;49.296;14.470;2023-05-27T08:13:27;3;3;
47081;PMS5003;33066;49.296;14.470;2023-05-27T08:15:52;5;4;
47081;PMS5003;33066;49.296;14.470;2023-05-27T08:18:17;6;6;
47081;PMS5003;33066;49.296;14.470;2023-05-27T08:20:43;10;9;
47081;PMS5003;33066;49.296;14.470;2023-05-27T08:23:09;3;3;
47081;PMS5003;33066;49.296;14.470;2023-05-27T08:25:34;4;3;
47081;PMS5003;33066;49.296;14.470;2023-05-27T08:27:59;5;5;
47081;PMS5003;33066;49.296;14.470;2023-05-27T08:30:25;6;5;
47081;PMS5003;33066;49.296;14.470;2023-05-27T08:32:51;4;4;
47081;PMS5003;33066;49.296;14.470;2023-05-27T08:35:16;11;11;
47081;PMS5003;33066;49.296;14.470;2023-05-27T08:37:41;7;7;
47081;PMS5003;33066;49.296;14.470;2023-05-27T08:40:08;3;3;
47081;PMS5003;33066;49.296;14.470;2023-05-27T08:42:31;9;8;
47081;PMS5003;33066;49.296;14.470;2023-05-27T08:44:57;7;7;
47081;PMS5003;33066;49.296;14.470;2023-05-27T08:47:24;7;6;
47081;PMS5003;33066;49.296;14.470;2023-05-27T08:49:48;8;5;
47081;PMS5003;33066;49.296;14.470;2023-05-27T08:52:14;8;6;
47081;PMS5003;33066;49.296;14.470;2023-05-27T08:54:40;4;4;
47081;PMS5003;33066;49.296;14.470;2023-05-27T08:57:04;7;6;
47081;PMS5003;33066;49.296;14.470;2023-05-27T08:59:31;11;11;
47081;PMS5003;33066;49.296;14.470;2023-05-27T09:01:55;6;6;
47081;PMS5003;33066;49.296;14.470;2023-05-27T09:04:19;6;5;
47081;PMS5003;33066;49.296;14.470;2023-05-27T09:06:44;4;4;
47081;PMS5003;33066;49.296;14.470;2023-05-27T09:09:10;8;5;
47081;PMS5003;33066;49.296;14.470;2023-05-27T09:11:38;7;5;
47081;PMS5003;33066;49.296;14.470;2023-05-27T09:14:00;5;4;
47081;PMS5003;33066;49.296;14.470;2023-05-27T09:16:27;5;4;
47081;PMS5003;33066;49.296;14.470;2023-05-27T09:18:50;7;6;
47081;PMS5003;33066;49.296;14.470;2023-05-27T09:21:15;9;6;
47081;PMS5003;33066;49.296;14.470;2023-05-27T09:23:41;5;4;
47081;PMS5003;33066;49.296;14.470;2023-05-27T09:26:07;5;4;
47081;PMS5003;33066;49.296;14.470;2023-05-27T09:28:31;3;3;
47081;PMS5003;33066;49.296;14.470;2023-05-27T09:30:59;2;2;
47081;PMS5003;33066;49.296;14.470;2023-05-27T09:33:23;4;4;
47081;PMS5003;33066;49.296;14.470;2023-05-27T09:35:46;5;3;
47081;PMS5003;33066;49.296;14.470;2023-05-27T09:38:13;9;5;
47081;PMS5003;33066;49.296;14.470;2023-05-27T09:40:37;5;5;
47081;PMS5003;33066;49.296;14.470;2023-05-27T09:43:02;5;3;
47081;PMS5003;33066;49.296;14.470;2023-05-27T09:45:27;5;3;
47081;PMS5003;33066;49.296;14.470;2023-05-27T09:47:53;4;2;
47081;PMS5003;33066;49.296;14.470;2023-05-27T09:50:18;3;3;
47081;PMS5003;33066;49.296;14.470;2023-05-27T09:52:43;5;4;
47081;PMS5003;33066;49.296;14.470;2023-05-27T09:55:08;4;4;
47081;PMS5003;33066;49.296;14.470;2023-05-27T09:57:34;4;3;
47081;PMS5003;33066;49.296;14.470;2023-05-27T09:59:58;4;3;
47081;PMS5003;33066;49.296;14.470;2023-05-27T10:02:23;4;4;
47081;PMS5003;33066;49.296;14.470;2023-05-27T10:04:48;6;5;
47081;PMS5003;33066;49.296;14.470;2023-05-27T10:07:14;4;2;
47081;PMS5003;33066;49.296;14.470;2023-05-27T10:09:39;7;4;
47081;PMS5003;33066;49.296;14.470;2023-05-27T10:12:04;3;3;
47081;PMS5003;33066;49.296;14.470;2023-05-27T10:14:29;4;3;
47081;PMS5003;33066;49.296;14.470;2023-05-27T10:16:55;8;8;
47081;PMS5003;33066;49.296;14.470;2023-05-27T10:19:19;6;4;
47081;PMS5003;33066;49.296;14.470;2023-05-27T10:21:46;5;4;
47081;PMS5003;33066;49.296;14.470;2023-05-27T10:24:11;3;3;
47081;PMS5003;33066;49.296;14.470;2023-05-27T10:26:36;10;9;
47081;PMS5003;33066;49.296;14.470;2023-05-27T10:29:05;6;5;
47081;PMS5003;33066;49.296;14.470;2023-05-27T10:31:28;4;4;
47081;PMS5003;33066;49.296;14.470;2023-05-27T10:33:50;6;3;
47081;PMS5003;33066;49.296;14.470;2023-05-27T10:36:22;4;4;
47081;PMS5003;33066;49.296;14.470;2023-05-27T10:38:41;5;3;
47081;PMS5003;33066;49.296;14.470;2023-05-27T10:41:06;7;4;
47081;PMS5003;33066;49.296;14.470;2023-05-27T10:43:30;4;4;
47081;PMS5003;33066;49.296;14.470;2023-05-27T10:48:21;3;3;
47081;PMS5003;33066;49.296;14.470;2023-05-27T10:50:50;2;2;
47081;PMS5003;33066;49.296;14.470;2023-05-27T10:53:13;4;4;
47081;PMS5003;33066;49.296;14.470;2023-05-27T10:55:38;9;8;
47081;PMS5003;33066;49.296;14.470;2023-05-27T10:58:04;4;4;
47081;PMS5003;33066;49.296;14.470;2023-05-27T11:00:29;6;4;
47081;PMS5003;33066;49.296;14.470;2023-05-27T11:02:55;3;3;
47081;PMS5003;33066;49.296;14.470;2023-05-27T11:05:27;3;3;
47081;PMS5003;33066;49.296;14.470;2023-05-27T11:07:48;6;3;
47081;PMS5003;33066;49.296;14.470;2023-05-27T11:10:13;2;2;
47081;PMS5003;33066;49.296;14.470;2023-05-27T11:12:43;5;2;
47081;PMS5003;33066;49.296;14.470;2023-05-27T11:15:04;6;5;
47081;PMS5003;33066;49.296;14.470;2023-05-27T11:17:31;6;3;
47081;PMS5003;33066;49.296;14.470;2023-05-27T11:19:55;5;4;
47081;PMS5003;33066;49.296;14.470;2023-05-27T11:22:21;5;4;
47081;PMS5003;33066;49.296;14.470;2023-05-27T11:27:13;3;3;
47081;PMS5003;33066;49.296;14.470;2023-05-27T11:29:39;3;3;
47081;PMS5003;33066;49.296;14.470;2023-05-27T11:32:04;4;4;
47081;PMS5003;33066;49.296;14.470;2023-05-27T11:34:30;7;4;
47081;PMS5003;33066;49.296;14.470;2023-05-27T11:36:56;5;3;
47081;PMS5003;33066;49.296;14.470;2023-05-27T11:39:21;4;3;
47081;PMS5003;33066;49.296;14.470;2023-05-27T11:41:48;6;4;
47081;PMS5003;33066;49.296;14.470;2023-05-27T11:44:13;6;5;
47081;PMS5003;33066;49.296;14.470;2023-05-27T11:46:40;4;2;
47081;PMS5003;33066;49.296;14.470;2023-05-27T11:49:05;7;7;
47081;PMS5003;33066;49.296;14.470;2023-05-27T11:51:30;4;4;
47081;PMS5003;33066;49.296;14.470;2023-05-27T11:53:57;5;5;
47081;PMS5003;33066;49.296;14.470;2023-05-27T11:56:22;5;4;
47081;PMS5003;33066;49.296;14.470;2023-05-27T11:58:47;3;3;
47081;PMS5003;33066;49.296;14.470;2023-05-27T12:01:13;2;2;
47081;PMS5003;33066;49.296;14.470;2023-05-27T12:03:39;4;4;
47081;PMS5003;33066;49.296;14.470;2023-05-27T12:06:05;7;3;
47081;PMS5003;33066;49.296;14.470;2023-05-27T12:08:30;7;4;
47081;PMS5003;33066;49.296;14.470;2023-05-27T12:10:56;5;5;
47081;PMS5003;33066;49.296;14.470;2023-05-27T12:13:23;6;5;
47081;PMS5003;33066;49.296;14.470;2023-05-27T12:15:48;2;2;
47081;PMS5003;33066;49.296;14.470;2023-05-27T12:18:13;6;3;
47081;PMS5003;33066;49.296;14.470;2023-05-27T12:20:39;5;3;
47081;PMS5003;33066;49.296;14.470;2023-05-27T12:23:05;4;4;
47081;PMS5003;33066;49.296;14.470;2023-05-27T12:25:31;7;6;
47081;PMS5003;33066;49.296;14.470;2023-05-27T12:27:56;2;2;
47081;PMS5003;33066;49.296;14.470;2023-05-27T12:30:22;6;4;
47081;PMS5003;33066;49.296;14.470;2023-05-27T12:32:47;4;4;
47081;PMS5003;33066;49.296;14.470;2023-05-27T12:35:13;4;3;
47081;PMS5003;33066;49.296;14.470;2023-05-27T12:37:41;5;3;
47081;PMS5003;33066;49.296;14.470;2023-05-27T12:40:05;4;4;
47081;PMS5003;33066;49.296;14.470;2023-05-27T12:42:30;7;4;
47081;PMS5003;33066;49.296;14.470;2023-05-27T12:44:56;7;6;
47081;PMS5003;33066;49.296;14.470;2023-05-27T12:47:22;6;5;
47081;PMS5003;33066;49.296;14.470;2023-05-27T12:49:47;5;5;
47081;PMS5003;33066;49.296;14.470;2023-05-27T12:52:13;4;4;
47081;PMS5003;33066;49.296;14.470;2023-05-27T12:54:38;8;8;
47081;PMS5003;33066;49.296;14.470;2023-05-27T12:57:04;5;3;
47081;PMS5003;33066;49.296;14.470;2023-05-27T12:59:30;5;3;
47081;PMS5003;33066;49.296;14.470;2023-05-27T13:01:56;3;3;
47081;PMS5003;33066;49.296;14.470;2023-05-27T13:04:21;4;4;
47081;PMS5003;33066;49.296;14.470;2023-05-27T13:06:47;6;5;
47081;PMS5003;33066;49.296;14.470;2023-05-27T13:09:13;4;4;
47081;PMS5003;33066;49.296;14.470;2023-05-27T13:11:39;3;2;
47081;PMS5003;33066;49.296;14.470;2023-05-27T13:14:04;4;4;
47081;PMS5003;33066;49.296;14.470;2023-05-27T13:16:30;4;4;
47081;PMS5003;33066;49.296;14.470;2023-05-27T13:18:56;7;5;
47081;PMS5003;33066;49.296;14.470;2023-05-27T13:21:21;5;4;
47081;PMS5003;33066;49.296;14.470;2023-05-27T13:23:47;4;3;
47081;PMS5003;33066;49.296;14.470;2023-05-27T13:26:13;4;4;
47081;PMS5003;33066;49.296;14.470;2023-05-27T13:28:39;5;4;
47081;PMS5003;33066;49.296;14.470;2023-05-27T13:31:04;5;5;
47081;PMS5003;33066;49.296;14.470;2023-05-27T13:33:31;4;4;
47081;PMS5003;33066;49.296;14.470;2023-05-27T13:35:55;5;4;
47081;PMS5003;33066;49.296;14.470;2023-05-27T13:38:21;4;4;
47081;PMS5003;33066;49.296;14.470;2023-05-27T13:40:47;4;3;
47081;PMS5003;33066;49.296;14.470;2023-05-27T13:43:12;4;4;
47081;PMS5003;33066;49.296;14.470;2023-05-27T13:45:38;8;4;
47081;PMS5003;33066;49.296;14.470;2023-05-27T13:48:04;2;2;
47081;PMS5003;33066;49.296;14.470;2023-05-27T13:50:29;4;3;
47081;PMS5003;33066;49.296;14.470;2023-05-27T13:52:55;6;5;
47081;PMS5003;33066;49.296;14.470;2023-05-27T13:55:20;8;6;
47081;PMS5003;33066;49.296;14.470;2023-05-27T13:57:46;4;4;
47081;PMS5003;33066;49.296;14.470;2023-05-27T14:00:12;6;4;
47081;PMS5003;33066;49.296;14.470;2023-05-27T14:02:37;4;4;
47081;PMS5003;33066;49.296;14.470;2023-05-27T14:05:03;7;7;
47081;PMS5003;33066;49.296;14.470;2023-05-27T14:07:29;4;3;
47081;PMS5003;33066;49.296;14.470;2023-05-27T14:09:54;2;2;
47081;PMS5003;33066;49.296;14.470;2023-05-27T14:12:20;7;4;
47081;PMS5003;33066;49.296;14.470;2023-05-27T14:14:45;3;2;
47081;PMS5003;33066;49.296;14.470;2023-05-27T14:17:11;6;5;
47081;PMS5003;33066;49.296;14.470;2023-05-27T14:19:37;3;3;
47081;PMS5003;33066;49.296;14.470;2023-05-27T14:22:02;2;2;
47081;PMS5003;33066;49.296;14.470;2023-05-27T14:24:28;6;6;
47081;PMS5003;33066;49.296;14.470;2023-05-27T14:26:55;4;4;
47081;PMS5003;33066;49.296;14.470;2023-05-27T14:29:20;2;2;
47081;PMS5003;33066;49.296;14.470;2023-05-27T14:31:45;6;6;
47081;PMS5003;33066;49.296;14.470;2023-05-27T14:34:11;6;6;
47081;PMS5003;33066;49.296;14.470;2023-05-27T14:36:36;6;5;
47081;PMS5003;33066;49.296;14.470;2023-05-27T14:39:02;5;4;
47081;PMS5003;33066;49.296;14.470;2023-05-27T14:41:28;4;4;
47081;PMS5003;33066;49.296;14.470;2023-05-27T14:43:53;4;4;
47081;PMS5003;33066;49.296;14.470;2023-05-27T14:46:19;5;4;
47081;PMS5003;33066;49.296;14.470;2023-05-27T14:48:45;5;4;
47081;PMS5003;33066;49.296;14.470;2023-05-27T14:51:11;4;3;
47081;PMS5003;33066;49.296;14.470;2023-05-27T14:53:36;3;3;
47081;PMS5003;33066;49.296;14.470;2023-05-27T14:56:02;4;4;
47081;PMS5003;33066;49.296;14.470;2023-05-27T14:58:27;3;3;
47081;PMS5003;33066;49.296;14.470;2023-05-27T15:00:52;4;4;
47081;PMS5003;33066;49.296;14.470;2023-05-27T15:03:18;6;4;
47081;PMS5003;33066;49.296;14.470;2023-05-27T15:05:44;6;4;
47081;PMS5003;33066;49.296;14.470;2023-05-27T15:08:09;12;12;
47081;PMS5003;33066;49.296;14.470;2023-05-27T15:10:35;6;6;
47081;PMS5003;33066;49.296;14.470;2023-05-27T15:13:00;2;2;
47081;PMS5003;33066;49.296;14.470;2023-05-27T15:15:27;12;11;
47081;PMS5003;33066;49.296;14.470;2023-05-27T15:17:51;5;5;
47081;PMS5003;33066;49.296;14.470;2023-05-27T15:20:17;4;4;
47081;PMS5003;33066;49.296;14.470;2023-05-27T15:22:43;6;5;
47081;PMS5003;33066;49.296;14.470;2023-05-27T15:25:09;7;6;
47081;PMS5003;33066;49.296;14.470;2023-05-27T15:27:34;5;3;
47081;PMS5003;33066;49.296;14.470;2023-05-27T15:30:02;5;4;
47081;PMS5003;33066;49.296;14.470;2023-05-27T15:32:26;9;6;
47081;PMS5003;33066;49.296;14.470;2023-05-27T15:34:51;8;7;
47081;PMS5003;33066;49.296;14.470;2023-05-27T15:37:17;9;7;
47081;PMS5003;33066;49.296;14.470;2023-05-27T15:39:43;31;31;
47081;PMS5003;33066;49.296;14.470;2023-05-27T15:42:08;14;12;
47081;PMS5003;33066;49.296;14.470;2023-05-27T15:44:33;11;10;
47081;PMS5003;33066;49.296;14.470;2023-05-27T15:46:58;22;16;
47081;PMS5003;33066;49.296;14.470;2023-05-27T15:49:24;8;8;
47081;PMS5003;33066;49.296;14.470;2023-05-27T15:51:49;44;44;
47081;PMS5003;33066;49.296;14.470;2023-05-27T15:54:16;14;13;
47081;PMS5003;33066;49.296;14.470;2023-05-27T15:56:41;13;11;
47081;PMS5003;33066;49.296;14.470;2023-05-27T15:59:06;32;32;
47081;PMS5003;33066;49.296;14.470;2023-05-27T16:01:32;5;4;
47081;PMS5003;33066;49.296;14.470;2023-05-27T16:03:58;4;4;
47081;PMS5003;33066;49.296;14.470;2023-05-27T16:06:23;8;3;
47081;PMS5003;33066;49.296;14.470;2023-05-27T16:08:50;5;3;
47081;PMS5003;33066;49.296;14.470;2023-05-27T16:11:15;5;5;
47081;PMS5003;33066;49.296;14.470;2023-05-27T16:13:41;5;5;
47081;PMS5003;33066;49.296;14.470;2023-05-27T16:16:07;6;5;
47081;PMS5003;33066;49.296;14.470;2023-05-27T16:18:31;11;11;